sensor_id;sensor_type;location;lat;lon;timestamp;pressure;altitude;pressure_sealevel;temperature;humidity
76637;BME280;65532;52.124;5.480;2023-02-28T00:01:27;103198.84;;;-0.43;83.37
76637;BME280;65532;52.124;5.480;2023-02-28T00:03:54;103188.59;;;-0.49;84.01
76637;BME280;65532;52.124;5.480;2023-02-28T00:06:21;103190.72;;;-0.54;84.48
76637;BME280;65532;52.124;5.480;2023-02-28T00:08:48;103199.44;;;-0.52;83.92
76637;BME280;65532;52.124;5.480;2023-02-28T00:11:15;103197.53;;;-0.50;83.10
76637;BME280;65532;52.124;5.480;2023-02-28T00:13:45;103205.25;;;-0.45;82.80
76637;BME280;65532;52.124;5.480;2023-02-28T00:16:18;103205.88;;;-0.42;82.80
76637;BME280;65532;52.124;5.480;2023-02-28T00:18:45;103205.25;;;-0.33;82.07
76637;BME280;65532;52.124;5.480;2023-02-28T00:21:13;103208.38;;;-0.26;82.27
76637;BME280;65532;52.124;5.480;2023-02-28T00:23:40;103208.81;;;-0.19;82.28
76637;BME280;65532;52.124;5.480;2023-02-28T00:26:06;103204.69;;;-0.11;81.93
76637;BME280;65532;52.124;5.480;2023-02-28T00:28:33;103203.44;;;-0.05;82.34
76637;BME280;65532;52.124;5.480;2023-02-28T00:30:59;103209.31;;;0.00;82.87
76637;BME280;65532;52.124;5.480;2023-02-28T00:33:28;103202.06;;;0.02;83.26
76637;BME280;65532;52.124;5.480;2023-02-28T00:36:03;103189.41;;;0.06;83.21
76637;BME280;65532;52.124;5.480;2023-02-28T00:38:30;103198.03;;;0.09;84.12
76637;BME280;65532;52.124;5.480;2023-02-28T00:40:56;103193.44;;;0.11;84.24
76637;BME280;65532;52.124;5.480;2023-02-28T00:43:24;103195.16;;;0.12;84.96
76637;BME280;65532;52.124;5.480;2023-02-28T00:45:50;103198.78;;;0.11;85.50
76637;BME280;65532;52.124;5.480;2023-02-28T00:48:17;103202.38;;;0.10;86.33
76637;BME280;65532;52.124;5.480;2023-02-28T00:50:43;103196.22;;;0.10;86.32
76637;BME280;65532;52.124;5.480;2023-02-28T00:53:10;103199.63;;;0.12;86.39
76637;BME280;65532;52.124;5.480;2023-02-28T00:55:36;103192.38;;;0.14;85.83
76637;BME280;65532;52.124;5.480;2023-02-28T00:58:03;103188.56;;;0.18;86.32
76637;BME280;65532;52.124;5.480;2023-02-28T01:00:30;103197.31;;;0.20;85.83
76637;BME280;65532;52.124;5.480;2023-02-28T01:02:56;103196.97;;;0.24;85.38
76637;BME280;65532;52.124;5.480;2023-02-28T01:05:23;103192.41;;;0.26;85.06
76637;BME280;65532;52.124;5.480;2023-02-28T01:07:50;103201.03;;;0.30;85.13
76637;BME280;65532;52.124;5.480;2023-02-28T01:10:16;103205.31;;;0.33;84.92
76637;BME280;65532;52.124;5.480;2023-02-28T01:12:43;103198.81;;;0.37;84.93
76637;BME280;65532;52.124;5.480;2023-02-28T01:15:10;103200.28;;;0.41;84.93
76637;BME280;65532;52.124;5.480;2023-02-28T01:17:37;103194.75;;;0.44;85.22
76637;BME280;65532;52.124;5.480;2023-02-28T01:20:04;103190.16;;;0.46;85.46
76637;BME280;65532;52.124;5.480;2023-02-28T01:22:30;103199.00;;;0.46;85.76
76637;BME280;65532;52.124;5.480;2023-02-28T01:24:57;103189.13;;;0.48;85.58
76637;BME280;65532;52.124;5.480;2023-02-28T01:27:23;103182.50;;;0.54;85.78
76637;BME280;65532;52.124;5.480;2023-02-28T01:29:51;103184.72;;;0.60;85.63
76637;BME280;65532;52.124;5.480;2023-02-28T01:32:18;103185.38;;;0.64;86.03
76637;BME280;65532;52.124;5.480;2023-02-28T01:34:44;103182.16;;;0.71;86.50
76637;BME280;65532;52.124;5.480;2023-02-28T01:37:11;103180.00;;;0.76;86.71
76637;BME280;65532;52.124;5.480;2023-02-28T01:39:37;103186.63;;;0.83;86.74
76637;BME280;65532;52.124;5.480;2023-02-28T01:42:04;103178.50;;;0.85;87.02
76637;BME280;65532;52.124;5.480;2023-02-28T01:47:21;103174.03;;;0.85;87.47
76637;BME280;65532;52.124;5.480;2023-02-28T01:49:49;103179.13;;;0.88;86.89
76637;BME280;65532;52.124;5.480;2023-02-28T01:52:18;103167.41;;;0.91;87.38
76637;BME280;65532;52.124;5.480;2023-02-28T01:54:48;103175.28;;;0.93;87.21
76637;BME280;65532;52.124;5.480;2023-02-28T01:57:19;103170.69;;;0.95;87.16
76637;BME280;65532;52.124;5.480;2023-02-28T01:59:52;103166.53;;;0.90;86.91
76637;BME280;65532;52.124;5.480;2023-02-28T02:02:21;103161.22;;;0.90;87.96
76637;BME280;65532;52.124;5.480;2023-02-28T02:07:32;103159.34;;;0.80;88.84
76637;BME280;65532;52.124;5.480;2023-02-28T02:10:02;103149.72;;;0.77;88.99
76637;BME280;65532;52.124;5.480;2023-02-28T02:18:09;103149.31;;;0.71;89.43
76637;BME280;65532;52.124;5.480;2023-02-28T02:21:03;103158.16;;;0.71;89.28
76637;BME280;65532;52.124;5.480;2023-02-28T02:34:49;103162.16;;;0.89;87.55
76637;BME280;65532;52.124;5.480;2023-02-28T02:37:39;103159.09;;;0.96;87.69
76637;BME280;65532;52.124;5.480;2023-02-28T02:40:18;103157.16;;;0.98;88.30
76637;BME280;65532;52.124;5.480;2023-02-28T02:43:01;103167.38;;;1.04;87.62
76637;BME280;65532;52.124;5.480;2023-02-28T02:45:41;103164.47;;;1.07;87.98
76637;BME280;65532;52.124;5.480;2023-02-28T02:48:12;103155.31;;;1.11;87.64
76637;BME280;65532;52.124;5.480;2023-02-28T02:50:51;103163.31;;;1.11;87.78
76637;BME280;65532;52.124;5.480;2023-02-28T02:53:24;103156.03;;;1.13;87.91
76637;BME280;65532;52.124;5.480;2023-02-28T02:55:53;103161.16;;;1.16;88.26
76637;BME280;65532;52.124;5.480;2023-02-28T02:58:26;103160.06;;;1.18;87.64
76637;BME280;65532;52.124;5.480;2023-02-28T03:00:59;103158.97;;;1.21;88.25
76637;BME280;65532;52.124;5.480;2023-02-28T03:03:29;103158.88;;;1.23;87.85
76637;BME280;65532;52.124;5.480;2023-02-28T03:05:59;103160.69;;;1.22;88.00
76637;BME280;65532;52.124;5.480;2023-02-28T03:08:27;103169.66;;;1.21;87.38
76637;BME280;65532;52.124;5.480;2023-02-28T03:11:01;103167.72;;;1.23;87.34
76637;BME280;65532;52.124;5.480;2023-02-28T03:27:18;103165.78;;;1.25;85.77
76637;BME280;65532;52.124;5.480;2023-02-28T03:29:51;103168.47;;;1.25;86.35
76637;BME280;65532;52.124;5.480;2023-02-28T03:35:18;103169.00;;;1.30;86.56
76637;BME280;65532;52.124;5.480;2023-02-28T03:38:03;103174.22;;;1.32;86.87
76637;BME280;65532;52.124;5.480;2023-02-28T03:40:33;103174.09;;;1.33;87.17
76637;BME280;65532;52.124;5.480;2023-02-28T03:43:07;103180.16;;;1.35;87.46
76637;BME280;65532;52.124;5.480;2023-02-28T03:45:38;103169.59;;;1.34;88.33
76637;BME280;65532;52.124;5.480;2023-02-28T03:48:11;103172.50;;;1.31;88.59
76637;BME280;65532;52.124;5.480;2023-02-28T03:50:44;103172.63;;;1.29;88.28
76637;BME280;65532;52.124;5.480;2023-02-28T03:56:11;103185.00;;;1.30;88.52
76637;BME280;65532;52.124;5.480;2023-02-28T04:01:41;103182.22;;;1.32;88.24
76637;BME280;65532;52.124;5.480;2023-02-28T04:04:09;103183.06;;;1.32;88.88
76637;BME280;65532;52.124;5.480;2023-02-28T04:06:36;103182.84;;;1.35;89.07
76637;BME280;65532;52.124;5.480;2023-02-28T04:09:04;103176.19;;;1.41;90.24
76637;BME280;65532;52.124;5.480;2023-02-28T04:11:51;103182.91;;;1.46;91.34
76637;BME280;65532;52.124;5.480;2023-02-28T04:14:19;103185.34;;;1.49;91.36
76637;BME280;65532;52.124;5.480;2023-02-28T04:16:45;103185.34;;;1.49;91.96
76637;BME280;65532;52.124;5.480;2023-02-28T04:19:12;103179.50;;;1.44;92.27
76637;BME280;65532;52.124;5.480;2023-02-28T04:21:43;103185.56;;;1.46;91.89
76637;BME280;65532;52.124;5.480;2023-02-28T04:24:13;103181.22;;;1.45;91.93
76637;BME280;65532;52.124;5.480;2023-02-28T04:26:43;103187.28;;;1.47;91.85
76637;BME280;65532;52.124;5.480;2023-02-28T04:29:11;103188.38;;;1.45;91.95
76637;BME280;65532;52.124;5.480;2023-02-28T04:31:38;103188.56;;;1.42;91.39
76637;BME280;65532;52.124;5.480;2023-02-28T04:34:05;103184.31;;;1.39;90.93
76637;BME280;65532;52.124;5.480;2023-02-28T04:36:32;103185.50;;;1.35;91.01
76637;BME280;65532;52.124;5.480;2023-02-28T04:38:59;103190.00;;;1.35;91.30
76637;BME280;65532;52.124;5.480;2023-02-28T04:41:26;103192.03;;;1.31;90.73
76637;BME280;65532;52.124;5.480;2023-02-28T04:43:57;103192.28;;;1.28;90.55
76637;BME280;65532;52.124;5.480;2023-02-28T04:46:23;103192.47;;;1.25;90.65
76637;BME280;65532;52.124;5.480;2023-02-28T04:48:50;103195.38;;;1.22;90.98
76637;BME280;65532;52.124;5.480;2023-02-28T04:51:18;103189.53;;;1.17;90.90
76637;BME280;65532;52.124;5.480;2023-02-28T04:53:46;103190.28;;;1.06;90.47
76637;BME280;65532;52.124;5.480;2023-02-28T04:56:15;103196.81;;;1.02;90.66
76637;BME280;65532;52.124;5.480;2023-02-28T04:58:42;103196.19;;;0.99;90.68
76637;BME280;65532;52.124;5.480;2023-02-28T05:01:18;103192.47;;;0.88;90.47
76637;BME280;65532;52.124;5.480;2023-02-28T05:03:46;103195.59;;;0.82;90.54
76637;BME280;65532;52.124;5.480;2023-02-28T05:06:13;103188.75;;;0.78;90.67
76637;BME280;65532;52.124;5.480;2023-02-28T05:08:40;103187.50;;;0.71;91.25
76637;BME280;65532;52.124;5.480;2023-02-28T05:11:21;103184.06;;;0.69;91.40
76637;BME280;65532;52.124;5.480;2023-02-28T05:13:48;103182.78;;;0.62;91.25
76637;BME280;65532;52.124;5.480;2023-02-28T05:16:16;103185.78;;;0.57;91.46
76637;BME280;65532;52.124;5.480;2023-02-28T05:18:42;103197.53;;;0.55;91.58
76637;BME280;65532;52.124;5.480;2023-02-28T05:21:35;103196.78;;;0.53;91.52
76637;BME280;65532;52.124;5.480;2023-02-28T05:24:06;103203.06;;;0.52;91.67
76637;BME280;65532;52.124;5.480;2023-02-28T05:26:36;103204.56;;;0.56;91.86
76637;BME280;65532;52.124;5.480;2023-02-28T05:29:03;103199.00;;;0.59;92.00
76637;BME280;65532;52.124;5.480;2023-02-28T05:31:31;103197.06;;;0.61;91.99
76637;BME280;65532;52.124;5.480;2023-02-28T05:33:58;103191.56;;;0.64;92.33
76637;BME280;65532;52.124;5.480;2023-02-28T05:36:25;103198.38;;;0.68;92.25
76637;BME280;65532;52.124;5.480;2023-02-28T05:38:51;103192.59;;;0.74;91.98
76637;BME280;65532;52.124;5.480;2023-02-28T05:41:19;103185.34;;;0.76;92.04
76637;BME280;65532;52.124;5.480;2023-02-28T05:43:47;103188.75;;;0.78;91.83
76637;BME280;65532;52.124;5.480;2023-02-28T05:46:13;103192.25;;;0.79;92.07
76637;BME280;65532;52.124;5.480;2023-02-28T05:48:46;103189.31;;;0.71;91.94
76637;BME280;65532;52.124;5.480;2023-02-28T05:51:13;103192.72;;;0.60;92.30
76637;BME280;65532;52.124;5.480;2023-02-28T05:53:39;103198.03;;;0.60;91.58
76637;BME280;65532;52.124;5.480;2023-02-28T05:56:06;103207.78;;;0.48;91.11
76637;BME280;65532;52.124;5.480;2023-02-28T05:58:33;103202.72;;;0.44;90.79
76637;BME280;65532;52.124;5.480;2023-02-28T06:03:48;103186.63;;;0.58;89.96
76637;BME280;65532;52.124;5.480;2023-02-28T06:06:14;103189.19;;;0.59;90.09
76637;BME280;65532;52.124;5.480;2023-02-28T06:08:40;103199.44;;;0.53;90.31
76637;BME280;65532;52.124;5.480;2023-02-28T06:11:09;103195.38;;;0.47;89.94
76637;BME280;65532;52.124;5.480;2023-02-28T06:13:36;103196.44;;;0.45;89.52
76637;BME280;65532;52.124;5.480;2023-02-28T06:16:03;103196.44;;;0.45;89.13
76637;BME280;65532;52.124;5.480;2023-02-28T06:18:29;103195.81;;;0.41;88.97
76637;BME280;65532;52.124;5.480;2023-02-28T06:20:55;103197.84;;;0.38;88.49
76637;BME280;65532;52.124;5.480;2023-02-28T06:23:22;103190.69;;;0.38;88.17
76637;BME280;65532;52.124;5.480;2023-02-28T06:25:49;103188.56;;;0.30;88.22
76637;BME280;65532;52.124;5.480;2023-02-28T06:28:16;103182.69;;;0.25;87.50
76637;BME280;65532;52.124;5.480;2023-02-28T06:30:42;103193.34;;;0.25;86.98
76637;BME280;65532;52.124;5.480;2023-02-28T06:33:11;103194.09;;;0.27;86.32
76637;BME280;65532;52.124;5.480;2023-02-28T06:35:38;103188.13;;;0.24;85.73
76637;BME280;65532;52.124;5.480;2023-02-28T06:38:04;103196.22;;;0.22;85.48
76637;BME280;65532;52.124;5.480;2023-02-28T06:40:31;103198.34;;;0.05;84.17
76637;BME280;65532;52.124;5.480;2023-02-28T06:43:02;103199.59;;;-0.01;82.75
76637;BME280;65532;52.124;5.480;2023-02-28T06:45:29;103195.13;;;-0.01;81.57
76637;BME280;65532;52.124;5.480;2023-02-28T06:47:57;103197.78;;;-0.01;81.05
76637;BME280;65532;52.124;5.480;2023-02-28T06:50:24;103196.00;;;0.00;80.09
76637;BME280;65532;52.124;5.480;2023-02-28T06:52:50;103199.59;;;-0.01;78.94
76637;BME280;65532;52.124;5.480;2023-02-28T06:55:20;103212.16;;;-0.03;77.60
76637;BME280;65532;52.124;5.480;2023-02-28T06:57:46;103208.75;;;-0.05;76.31
76637;BME280;65532;52.124;5.480;2023-02-28T07:00:13;103210.44;;;-0.04;74.60
76637;BME280;65532;52.124;5.480;2023-02-28T07:02:40;103221.00;;;-0.03;72.96
76637;BME280;65532;52.124;5.480;2023-02-28T07:05:07;103217.47;;;-0.03;72.25
76637;BME280;65532;52.124;5.480;2023-02-28T07:07:34;103221.47;;;0.04;71.63
76637;BME280;65532;52.124;5.480;2023-02-28T07:10:02;103216.03;;;0.06;71.54
76637;BME280;65532;52.124;5.480;2023-02-28T07:12:29;103216.66;;;0.09;71.60
76637;BME280;65532;52.124;5.480;2023-02-28T07:14:56;103216.44;;;0.12;72.00
76637;BME280;65532;52.124;5.480;2023-02-28T07:17:23;103213.38;;;0.18;71.19
76637;BME280;65532;52.124;5.480;2023-02-28T07:19:49;103216.16;;;0.29;70.83
76637;BME280;65532;52.124;5.480;2023-02-28T07:22:16;103221.59;;;0.41;71.40
76637;BME280;65532;52.124;5.480;2023-02-28T07:24:42;103225.13;;;0.41;72.48
76637;BME280;65532;52.124;5.480;2023-02-28T07:27:08;103232.59;;;0.36;73.25
76637;BME280;65532;52.124;5.480;2023-02-28T07:29:35;103225.00;;;0.30;72.53
76637;BME280;65532;52.124;5.480;2023-02-28T07:32:02;103221.72;;;0.39;71.44
76637;BME280;65532;52.124;5.480;2023-02-28T07:34:29;103220.97;;;0.50;70.67
76637;BME280;65532;52.124;5.480;2023-02-28T07:36:55;103217.53;;;0.60;70.28
76637;BME280;65532;52.124;5.480;2023-02-28T07:39:22;103218.22;;;0.64;70.51
76637;BME280;65532;52.124;5.480;2023-02-28T07:41:48;103233.03;;;0.68;70.70
76637;BME280;65532;52.124;5.480;2023-02-28T07:44:15;103229.50;;;0.68;71.01
76637;BME280;65532;52.124;5.480;2023-02-28T07:46:42;103229.16;;;0.72;70.93
76637;BME280;65532;52.124;5.480;2023-02-28T07:49:08;103232.69;;;0.73;72.28
76637;BME280;65532;52.124;5.480;2023-02-28T07:51:35;103228.00;;;0.76;73.21
76637;BME280;65532;52.124;5.480;2023-02-28T07:54:01;103231.41;;;0.78;73.98
76637;BME280;65532;52.124;5.480;2023-02-28T07:56:28;103227.97;;;0.89;73.71
76637;BME280;65532;52.124;5.480;2023-02-28T07:58:55;103227.44;;;0.97;75.24
76637;BME280;65532;52.124;5.480;2023-02-28T08:01:22;103237.09;;;1.10;76.50
76637;BME280;65532;52.124;5.480;2023-02-28T08:03:48;103237.09;;;1.23;80.06
76637;BME280;65532;52.124;5.480;2023-02-28T08:06:20;103243.00;;;1.39;80.82
76637;BME280;65532;52.124;5.480;2023-02-28T08:08:47;103240.88;;;1.44;85.07
76637;BME280;65532;52.124;5.480;2023-02-28T08:11:15;103248.19;;;1.54;84.81
76637;BME280;65532;52.124;5.480;2023-02-28T08:13:43;103250.44;;;1.60;85.74
76637;BME280;65532;52.124;5.480;2023-02-28T08:16:11;103240.75;;;1.70;86.36
76637;BME280;65532;52.124;5.480;2023-02-28T08:18:40;103251.00;;;1.76;87.91
76637;BME280;65532;52.124;5.480;2023-02-28T08:21:08;103254.41;;;1.78;88.61
76637;BME280;65532;52.124;5.480;2023-02-28T08:23:35;103259.06;;;1.87;89.02
76637;BME280;65532;52.124;5.480;2023-02-28T08:26:02;103237.47;;;1.90;90.25
76637;BME280;65532;52.124;5.480;2023-02-28T08:28:29;103238.53;;;1.88;91.35
76637;BME280;65532;52.124;5.480;2023-02-28T08:30:56;103247.31;;;1.90;92.19
76637;BME280;65532;52.124;5.480;2023-02-28T08:33:23;103254.25;;;1.92;92.12
76637;BME280;65532;52.124;5.480;2023-02-28T08:35:54;103242.59;;;1.93;92.37
76637;BME280;65532;52.124;5.480;2023-02-28T08:38:21;103246.59;;;1.99;92.25
76637;BME280;65532;52.124;5.480;2023-02-28T08:40:48;103248.72;;;2.06;91.61
76637;BME280;65532;52.124;5.480;2023-02-28T08:43:15;103240.22;;;2.13;91.72
76637;BME280;65532;52.124;5.480;2023-02-28T08:45:41;103247.66;;;2.20;90.65
76637;BME280;65532;52.124;5.480;2023-02-28T08:48:08;103238.38;;;2.37;89.97
76637;BME280;65532;52.124;5.480;2023-02-28T08:50:34;103238.38;;;2.48;89.87
76637;BME280;65532;52.124;5.480;2023-02-28T08:53:01;103238.13;;;2.51;89.40
76637;BME280;65532;52.124;5.480;2023-02-28T08:55:27;103237.44;;;2.60;89.16
76637;BME280;65532;52.124;5.480;2023-02-28T08:57:54;103241.31;;;2.79;86.82
76637;BME280;65532;52.124;5.480;2023-02-28T09:00:21;103239.41;;;3.03;84.77
76637;BME280;65532;52.124;5.480;2023-02-28T09:02:48;103235.31;;;4.90;85.45
76637;BME280;65532;52.124;5.480;2023-02-28T09:05:14;103234.53;;;5.58;80.58
76637;BME280;65532;52.124;5.480;2023-02-28T09:07:41;103224.84;;;6.62;77.25
76637;BME280;65532;52.124;5.480;2023-02-28T09:10:09;103221.22;;;7.45;70.42
76637;BME280;65532;52.124;5.480;2023-02-28T09:12:35;103224.59;;;6.93;68.39
76637;BME280;65532;52.124;5.480;2023-02-28T09:15:02;103229.84;;;5.60;68.54
76637;BME280;65532;52.124;5.480;2023-02-28T09:17:29;103240.38;;;5.23;71.68
76637;BME280;65532;52.124;5.480;2023-02-28T09:19:57;103240.72;;;4.99;69.21
76637;BME280;65532;52.124;5.480;2023-02-28T09:22:23;103242.88;;;4.75;66.28
76637;BME280;65532;52.124;5.480;2023-02-28T09:24:50;103243.66;;;5.27;66.17
76637;BME280;65532;52.124;5.480;2023-02-28T09:27:17;103232.13;;;5.65;64.63
76637;BME280;65532;52.124;5.480;2023-02-28T09:29:43;103238.06;;;5.59;64.80
76637;BME280;65532;52.124;5.480;2023-02-28T09:32:10;103234.16;;;5.92;61.29
76637;BME280;65532;52.124;5.480;2023-02-28T09:34:37;103238.03;;;5.49;61.03
76637;BME280;65532;52.124;5.480;2023-02-28T09:37:04;103240.72;;;4.99;60.14
76637;BME280;65532;52.124;5.480;2023-02-28T09:39:30;103242.53;;;4.68;60.50
76637;BME280;65532;52.124;5.480;2023-02-28T09:41:58;103241.41;;;4.71;60.54
76637;BME280;65532;52.124;5.480;2023-02-28T09:44:29;103242.81;;;4.65;60.23
76637;BME280;65532;52.124;5.480;2023-02-28T09:47:08;103243.38;;;4.69;57.96
76637;BME280;65532;52.124;5.480;2023-02-28T09:49:40;103251.00;;;4.64;56.47
76637;BME280;65532;52.124;5.480;2023-02-28T09:52:20;103242.13;;;4.94;56.92
76637;BME280;65532;52.124;5.480;2023-02-28T09:54:47;103240.25;;;5.34;57.49
76637;BME280;65532;52.124;5.480;2023-02-28T10:00:04;103245.56;;;5.65;56.90
76637;BME280;65532;52.124;5.480;2023-02-28T10:03:14;103240.03;;;5.66;55.97
76637;BME280;65532;52.124;5.480;2023-02-28T10:08:36;103237.84;;;5.91;53.85
76637;BME280;65532;52.124;5.480;2023-02-28T10:11:10;103237.00;;;6.00;54.01
76637;BME280;65532;52.124;5.480;2023-02-28T10:19:13;103240.38;;;6.12;50.82
76637;BME280;65532;52.124;5.480;2023-02-28T10:21:46;103225.53;;;6.17;52.23
76637;BME280;65532;52.124;5.480;2023-02-28T10:26:47;103213.91;;;5.97;50.39
76637;BME280;65532;52.124;5.480;2023-02-28T10:29:14;103222.13;;;5.96;46.64
76637;BME280;65532;52.124;5.480;2023-02-28T10:31:41;103228.91;;;5.71;49.24
76637;BME280;65532;52.124;5.480;2023-02-28T10:34:12;103214.88;;;5.77;50.17
76637;BME280;65532;52.124;5.480;2023-02-28T10:36:39;103232.16;;;5.75;48.87
76637;BME280;65532;52.124;5.480;2023-02-28T10:39:38;103226.25;;;6.00;48.37
76637;BME280;65532;52.124;5.480;2023-02-28T10:42:19;103232.69;;;5.78;46.99
76637;BME280;65532;52.124;5.480;2023-02-28T10:44:46;103232.88;;;5.96;49.01
76637;BME280;65532;52.124;5.480;2023-02-28T10:47:15;103229.91;;;6.18;46.43
76637;BME280;65532;52.124;5.480;2023-02-28T10:49:48;103226.78;;;6.33;47.46
76637;BME280;65532;52.124;5.480;2023-02-28T10:52:33;103221.13;;;5.97;44.31
76637;BME280;65532;52.124;5.480;2023-02-28T10:55:24;103233.81;;;5.66;45.92
76637;BME280;65532;52.124;5.480;2023-02-28T10:57:52;103219.41;;;5.77;47.22
76637;BME280;65532;52.124;5.480;2023-02-28T11:00:21;103215.22;;;6.03;46.93
76637;BME280;65532;52.124;5.480;2023-02-28T11:02:48;103209.78;;;5.84;44.92
76637;BME280;65532;52.124;5.480;2023-02-28T11:05:30;103199.91;;;5.94;46.51
76637;BME280;65532;52.124;5.480;2023-02-28T11:08:13;103209.78;;;5.74;44.85
76637;BME280;65532;52.124;5.480;2023-02-28T11:10:44;103200.47;;;5.88;45.64
76637;BME280;65532;52.124;5.480;2023-02-28T11:13:27;103198.22;;;5.93;46.40
76637;BME280;65532;52.124;5.480;2023-02-28T11:15:57;103195.94;;;5.98;45.02
76637;BME280;65532;52.124;5.480;2023-02-28T11:21:22;103199.38;;;6.00;46.38
76637;BME280;65532;52.124;5.480;2023-02-28T11:23:51;103194.53;;;5.94;46.11
76637;BME280;65532;52.124;5.480;2023-02-28T11:26:36;103187.31;;;5.85;46.20
76637;BME280;65532;52.124;5.480;2023-02-28T11:29:18;103202.16;;;5.89;46.53
76637;BME280;65532;52.124;5.480;2023-02-28T11:34:27;103185.63;;;6.03;45.57
76637;BME280;65532;52.124;5.480;2023-02-28T11:36:56;103184.06;;;6.10;46.00
76637;BME280;65532;52.124;5.480;2023-02-28T11:39:25;103185.50;;;6.05;46.09
76637;BME280;65532;52.124;5.480;2023-02-28T11:42:07;103180.94;;;5.86;45.84
76637;BME280;65532;52.124;5.480;2023-02-28T11:52:51;103164.09;;;5.84;44.53
76637;BME280;65532;52.124;5.480;2023-02-28T12:06:53;103163.06;;;6.33;45.80
76637;BME280;65532;52.124;5.480;2023-02-28T12:09:52;103166.72;;;6.42;45.69
76637;BME280;65532;52.124;5.480;2023-02-28T12:15:12;103155.47;;;6.56;44.80
76637;BME280;65532;52.124;5.480;2023-02-28T12:28:31;103149.56;;;6.43;45.57
76637;BME280;65532;52.124;5.480;2023-02-28T12:31:04;103142.97;;;6.27;44.97
76637;BME280;65532;52.124;5.480;2023-02-28T12:33:35;103141.56;;;6.23;44.75
76637;BME280;65532;52.124;5.480;2023-02-28T12:36:09;103146.09;;;6.23;44.91
76637;BME280;65532;52.124;5.480;2023-02-28T12:38:50;103151.16;;;6.36;44.56
76637;BME280;65532;52.124;5.480;2023-02-28T12:41:36;103140.66;;;6.42;44.59
76637;BME280;65532;52.124;5.480;2023-02-28T12:44:09;103153.16;;;6.34;42.67
76637;BME280;65532;52.124;5.480;2023-02-28T12:46:50;103143.25;;;6.24;43.81
76637;BME280;65532;52.124;5.480;2023-02-28T12:49:39;103125.66;;;6.40;44.37
76637;BME280;65532;52.124;5.480;2023-02-28T12:52:07;103130.75;;;6.43;44.49
76637;BME280;65532;52.124;5.480;2023-02-28T12:55:00;103133.06;;;6.65;44.53
76637;BME280;65532;52.124;5.480;2023-02-28T12:57:46;103123.88;;;6.58;43.98
76637;BME280;65532;52.124;5.480;2023-02-28T13:00:19;103127.63;;;6.47;43.17
76637;BME280;65532;52.124;5.480;2023-02-28T13:03:12;103126.09;;;6.72;44.05
76637;BME280;65532;52.124;5.480;2023-02-28T13:10:57;103119.25;;;6.78;42.69
76637;BME280;65532;52.124;5.480;2023-02-28T13:13:26;103117.81;;;6.56;42.02
76637;BME280;65532;52.124;5.480;2023-02-28T13:16:06;103107.44;;;6.34;42.77
76637;BME280;65532;52.124;5.480;2023-02-28T13:18:34;103109.44;;;6.59;44.45
76637;BME280;65532;52.124;5.480;2023-02-28T13:21:04;103114.00;;;6.76;43.78
76637;BME280;65532;52.124;5.480;2023-02-28T13:23:37;103115.72;;;6.77;43.21
76637;BME280;65532;52.124;5.480;2023-02-28T13:26:05;103110.19;;;6.79;43.29
76637;BME280;65532;52.124;5.480;2023-02-28T13:31:17;103098.78;;;6.95;42.66
76637;BME280;65532;52.124;5.480;2023-02-28T13:36:25;103096.16;;;6.75;42.35
76637;BME280;65532;52.124;5.480;2023-02-28T13:38:59;103099.78;;;6.66;42.45
76637;BME280;65532;52.124;5.480;2023-02-28T13:44:18;103096.94;;;6.68;41.71
76637;BME280;65532;52.124;5.480;2023-02-28T13:49:29;103090.59;;;6.59;42.18
76637;BME280;65532;52.124;5.480;2023-02-28T14:06:29;103083.47;;;6.95;41.71
76637;BME280;65532;52.124;5.480;2023-02-28T14:09:01;103076.66;;;6.91;41.46
76637;BME280;65532;52.124;5.480;2023-02-28T14:11:35;103071.06;;;6.84;42.62
76637;BME280;65532;52.124;5.480;2023-02-28T14:14:04;103077.63;;;7.17;43.00
76637;BME280;65532;52.124;5.480;2023-02-28T14:16:44;103065.84;;;7.01;41.08
76637;BME280;65532;52.124;5.480;2023-02-28T14:19:12;103070.53;;;7.16;42.09
76637;BME280;65532;52.124;5.480;2023-02-28T14:21:58;103070.38;;;7.00;41.77
76637;BME280;65532;52.124;5.480;2023-02-28T14:24:55;103065.19;;;6.89;42.34
76637;BME280;65532;52.124;5.480;2023-02-28T14:27:36;103068.25;;;6.76;42.01
76637;BME280;65532;52.124;5.480;2023-02-28T14:32:54;103065.19;;;6.71;41.93
76637;BME280;65532;52.124;5.480;2023-02-28T14:37:53;103065.69;;;6.57;41.83
76637;BME280;65532;52.124;5.480;2023-02-28T14:40:30;103056.53;;;6.50;42.19
76637;BME280;65532;52.124;5.480;2023-02-28T14:43:01;103057.91;;;6.54;42.47
76637;BME280;65532;52.124;5.480;2023-02-28T14:45:33;103055.09;;;6.46;42.80
76637;BME280;65532;52.124;5.480;2023-02-28T14:48:04;103061.97;;;6.58;43.28
76637;BME280;65532;52.124;5.480;2023-02-28T14:50:36;103050.56;;;6.46;42.33
76637;BME280;65532;52.124;5.480;2023-02-28T14:53:06;103050.94;;;6.34;42.78
76637;BME280;65532;52.124;5.480;2023-02-28T14:55:45;103053.63;;;6.34;42.62
76637;BME280;65532;52.124;5.480;2023-02-28T14:58:31;103057.72;;;6.28;43.39
76637;BME280;65532;52.124;5.480;2023-02-28T15:01:01;103055.91;;;6.56;43.36
76637;BME280;65532;52.124;5.480;2023-02-28T15:03:34;103054.03;;;6.66;43.43
76637;BME280;65532;52.124;5.480;2023-02-28T15:06:12;103056.22;;;6.80;43.80
76637;BME280;65532;52.124;5.480;2023-02-28T15:08:39;103054.13;;;6.92;43.16
76637;BME280;65532;52.124;5.480;2023-02-28T15:11:08;103047.09;;;6.64;42.37
76637;BME280;65532;52.124;5.480;2023-02-28T15:13:45;103047.44;;;6.51;42.39
76637;BME280;65532;52.124;5.480;2023-02-28T15:18:48;103054.00;;;6.39;42.86
76637;BME280;65532;52.124;5.480;2023-02-28T15:21:24;103053.91;;;6.30;43.14
76637;BME280;65532;52.124;5.480;2023-02-28T15:23:55;103056.88;;;6.27;43.34
76637;BME280;65532;52.124;5.480;2023-02-28T15:26:27;103059.19;;;6.22;42.31
76637;BME280;65532;52.124;5.480;2023-02-28T15:29:00;103058.34;;;6.22;42.80
76637;BME280;65532;52.124;5.480;2023-02-28T15:31:42;103059.50;;;6.10;42.64
76637;BME280;65532;52.124;5.480;2023-02-28T15:34:36;103067.69;;;6.18;42.91
76637;BME280;65532;52.124;5.480;2023-02-28T15:37:29;103061.19;;;6.20;43.26